createdAt,value
2019-06-01T00:02:04.289Z,37.20
2019-06-01T00:04:33.431Z,37.40
2019-06-01T00:07:02.507Z,38.00
2019-06-01T00:09:31.308Z,38.10
2019-06-01T00:12:00.152Z,38.80
2019-06-01T00:14:29.000Z,38.40
2019-06-01T00:16:57.976Z,38.40
2019-06-01T00:19:26.857Z,38.70
2019-06-01T00:21:55.909Z,38.40
2019-06-01T00:24:24.866Z,38.40
2019-06-01T00:26:53.712Z,38.30
2019-06-01T00:29:22.832Z,37.10
2019-06-01T00:31:52.194Z,38.30
2019-06-01T00:34:21.265Z,38.20
2019-06-01T00:36:50.099Z,38.90
2019-06-01T00:39:19.020Z,38.50
2019-06-01T00:41:48.097Z,38.20
2019-06-01T00:44:17.216Z,38.10
2019-06-01T00:46:46.636Z,38.90
2019-06-01T00:49:15.780Z,39.80
2019-06-01T00:51:45.050Z,40.10
2019-06-01T00:54:14.032Z,40.50
2019-06-01T00:56:43.492Z,40.80
2019-06-01T00:59:12.533Z,41.40
2019-06-01T01:01:41.492Z,41.90
2019-06-01T01:04:10.461Z,41.90
2019-06-01T01:06:58.471Z,42.50
2019-06-01T01:09:27.244Z,41.30
2019-06-01T01:11:56.072Z,40.50
2019-06-01T01:14:25.018Z,39.90
2019-06-01T01:16:54.186Z,40.50
2019-06-01T01:19:23.400Z,40.90
2019-06-01T01:21:52.361Z,40.60
2019-06-01T01:24:21.280Z,39.50
2019-06-01T01:26:50.615Z,39.00
2019-06-01T01:29:19.563Z,39.70
2019-06-01T01:31:49.168Z,38.80
2019-06-01T01:34:18.262Z,38.80
2019-06-01T01:36:47.608Z,40.10
2019-06-01T01:39:16.717Z,40.80
2019-06-01T01:41:45.965Z,41.20
2019-06-01T01:44:14.845Z,42.10
2019-06-01T01:46:43.630Z,42.60
2019-06-01T01:49:12.559Z,42.20
2019-06-01T01:51:41.345Z,41.90
2019-06-01T01:54:10.248Z,41.60
2019-06-01T01:56:39.060Z,41.80
2019-06-01T01:59:07.886Z,41.00
2019-06-01T02:01:36.870Z,41.80
2019-06-01T02:04:05.736Z,42.40
2019-06-01T02:06:34.624Z,42.40
2019-06-01T02:09:05.110Z,42.30
2019-06-01T02:11:34.089Z,41.90
2019-06-01T02:14:03.344Z,41.40
2019-06-01T02:16:32.348Z,41.60
2019-06-01T02:19:02.352Z,42.70
2019-06-01T02:21:31.652Z,42.80
2019-06-01T02:24:01.270Z,43.30
2019-06-01T02:26:30.201Z,43.60
2019-06-01T02:28:59.477Z,43.50
2019-06-01T02:31:40.935Z,42.40
2019-06-01T02:34:01.048Z,42.40
2019-06-01T02:36:29.649Z,42.40
2019-06-01T02:38:58.740Z,42.60
2019-06-01T02:41:28.193Z,43.10
2019-06-01T02:43:57.490Z,43.40
2019-06-01T02:46:27.819Z,43.30
2019-06-01T02:48:57.396Z,43.30
2019-06-01T02:51:26.560Z,44.30
2019-06-01T02:53:55.680Z,43.00
2019-06-01T02:56:24.534Z,43.00
2019-06-01T02:58:53.500Z,43.70
2019-06-01T03:01:34.888Z,44.10
2019-06-01T03:04:08.023Z,43.60
2019-06-01T03:06:40.968Z,44.20
2019-06-01T03:09:10.625Z,44.30
2019-06-01T03:11:40.890Z,45.20
2019-06-01T03:14:11.532Z,44.50
2019-06-01T03:16:42.585Z,43.00
2019-06-01T03:19:12.113Z,44.00
2019-06-01T03:21:43.609Z,45.20
2019-06-01T03:24:13.600Z,44.40
2019-06-01T03:26:44.933Z,45.40
2019-06-01T03:29:19.517Z,45.40
2019-06-01T03:31:48.838Z,45.20
2019-06-01T03:34:18.359Z,44.80
2019-06-01T03:36:47.685Z,44.70
2019-06-01T03:39:16.752Z,43.20
2019-06-01T03:41:45.612Z,44.70
2019-06-01T03:44:14.980Z,44.40
2019-06-01T03:46:44.016Z,45.00
2019-06-01T03:49:13.076Z,45.60
2019-06-01T03:51:41.972Z,45.70
2019-06-01T03:54:10.861Z,46.60
2019-06-01T03:56:39.845Z,46.90
2019-06-01T03:59:09.369Z,47.10
2019-06-01T04:01:38.375Z,46.90
2019-06-01T04:04:07.284Z,47.00
2019-06-01T04:06:36.260Z,48.00
2019-06-01T04:09:07.767Z,46.90
2019-06-01T04:11:37.171Z,46.50
2019-06-01T04:14:07.729Z,46.10
2019-06-01T04:16:36.967Z,46.60
2019-06-01T04:19:06.050Z,48.00
2019-06-01T04:21:35.485Z,48.00
2019-06-01T04:24:04.464Z,48.60
2019-06-01T04:26:33.396Z,48.20
2019-06-01T04:29:02.527Z,48.30
2019-06-01T04:31:31.362Z,47.70
2019-06-01T04:34:00.335Z,48.10
2019-06-01T04:36:29.285Z,49.10
2019-06-01T04:38:58.304Z,49.70
2019-06-01T04:41:27.221Z,48.10
2019-06-01T04:43:56.076Z,48.80
2019-06-01T04:46:24.940Z,48.50
2019-06-01T04:48:53.741Z,48.60
2019-06-01T04:51:22.712Z,48.60
2019-06-01T04:53:51.962Z,48.70
2019-06-01T04:56:21.187Z,48.60
2019-06-01T04:58:50.121Z,48.40
2019-06-01T05:01:19.045Z,48.20
2019-06-01T05:03:47.961Z,47.70
2019-06-01T05:06:16.853Z,47.00
2019-06-01T05:08:49.321Z,47.40
2019-06-01T05:11:18.108Z,46.90
2019-06-01T05:13:47.080Z,46.80
2019-06-01T05:16:16.592Z,46.10
2019-06-01T05:18:45.801Z,46.30
2019-06-01T05:21:15.256Z,45.30
2019-06-01T05:23:44.704Z,45.50
2019-06-01T05:26:13.620Z,46.00
2019-06-01T05:28:42.520Z,48.10
2019-06-01T05:31:16.759Z,47.10
2019-06-01T05:33:43.167Z,45.80
2019-06-01T05:36:12.210Z,44.90
2019-06-01T05:38:41.131Z,43.40
2019-06-01T05:41:11.536Z,47.80
2019-06-01T05:43:40.824Z,46.90
2019-06-01T05:46:09.915Z,44.90
2019-06-01T05:48:39.172Z,45.90
2019-06-01T05:51:08.110Z,47.80
2019-06-01T05:53:37.152Z,46.90
2019-06-01T05:56:06.045Z,46.00
2019-06-01T05:58:35.121Z,45.20
2019-06-01T06:01:04.293Z,44.30
2019-06-01T06:03:40.352Z,43.10
2019-06-01T06:06:04.133Z,43.20
2019-06-01T06:08:33.063Z,42.20
2019-06-01T06:11:01.952Z,42.30
2019-06-01T06:13:30.820Z,42.50
2019-06-01T06:15:59.731Z,42.70
2019-06-01T06:18:28.549Z,42.80
2019-06-01T06:20:57.676Z,43.00
2019-06-01T06:23:26.590Z,42.30
2019-06-01T06:25:55.483Z,42.30
2019-06-01T06:28:26.605Z,40.20
2019-06-01T06:30:55.230Z,40.40
2019-06-01T06:33:24.112Z,40.60
2019-06-01T06:35:53.009Z,39.80
2019-06-01T06:38:21.987Z,39.00
2019-06-01T06:40:51.192Z,39.50
2019-06-01T06:43:29.666Z,38.70
2019-06-01T06:45:50.688Z,39.00
2019-06-01T06:48:21.164Z,39.20
2019-06-01T06:50:50.390Z,38.30
2019-06-01T06:53:31.792Z,32.90
2019-06-01T06:55:49.814Z,30.50
2019-06-01T06:58:18.957Z,29.70
2019-06-01T07:00:48.423Z,29.40
2019-06-01T07:03:18.825Z,28.90
2019-06-01T07:05:48.122Z,29.10
2019-06-01T07:08:17.694Z,29.40
2019-06-01T07:10:47.022Z,30.30
2019-06-01T07:13:15.936Z,30.20
2019-06-01T07:15:44.807Z,30.60
2019-06-01T07:18:13.699Z,30.40
2019-06-01T07:20:42.520Z,28.70
2019-06-01T07:23:11.335Z,29.20
2019-06-01T07:25:40.262Z,30.10
2019-06-01T07:28:09.354Z,30.50
2019-06-01T07:30:49.586Z,29.60
2019-06-01T07:33:08.873Z,29.00
2019-06-01T07:35:37.922Z,28.10
2019-06-01T07:38:06.844Z,29.70
2019-06-01T07:40:35.746Z,30.10
2019-06-01T07:43:04.919Z,29.10
2019-06-01T07:45:35.336Z,28.30
2019-06-01T07:48:04.602Z,27.30
2019-06-01T07:50:33.616Z,26.40
2019-06-01T07:53:02.696Z,27.00
2019-06-01T07:55:31.839Z,27.20
2019-06-01T07:58:00.840Z,25.80
2019-06-01T08:00:29.826Z,25.20
2019-06-01T08:02:58.717Z,25.20
2019-06-01T08:05:28.052Z,26.60
2019-06-01T08:07:57.187Z,26.00
2019-06-01T08:10:27.697Z,25.20
2019-06-01T08:12:56.964Z,24.50
2019-06-01T08:15:25.984Z,25.00
2019-06-01T08:17:54.875Z,25.70
2019-06-01T08:20:24.045Z,26.10
2019-06-01T08:22:53.357Z,27.20
2019-06-01T08:25:22.267Z,27.40
2019-06-01T08:27:51.060Z,27.40
2019-06-01T08:30:19.965Z,27.40
2019-06-01T08:32:49.052Z,27.40
2019-06-01T08:35:18.217Z,25.70
2019-06-01T08:37:47.323Z,26.40
2019-06-01T08:40:16.407Z,26.50
2019-06-01T08:42:45.253Z,26.50
2019-06-01T08:45:14.466Z,25.80
2019-06-01T08:47:43.253Z,25.40
2019-06-01T08:50:12.343Z,25.40
2019-06-01T08:52:41.119Z,25.20
2019-06-01T08:55:10.732Z,25.30
2019-06-01T08:57:39.629Z,25.30
2019-06-01T09:00:09.616Z,23.80
2019-06-01T09:02:38.745Z,24.10
2019-06-01T09:05:21.326Z,24.00
2019-06-01T09:07:39.129Z,24.30
2019-06-01T09:10:09.109Z,23.80
2019-06-01T09:12:38.236Z,23.90
2019-06-01T09:15:08.247Z,24.10
2019-06-01T09:17:37.224Z,21.80
2019-06-01T09:20:06.728Z,22.80
2019-06-01T09:22:35.848Z,22.70
2019-06-01T09:25:05.726Z,20.00
2019-06-01T09:27:36.004Z,20.10
2019-06-01T09:30:07.585Z,22.30
2019-06-01T09:32:36.642Z,22.60
2019-06-01T09:35:05.811Z,22.20
2019-06-01T09:37:35.065Z,22.20
2019-06-01T09:40:04.810Z,20.60
2019-06-01T09:42:35.036Z,20.30
2019-06-01T09:45:05.025Z,19.20
2019-06-01T09:47:33.909Z,19.40
2019-06-01T09:50:02.699Z,19.30
2019-06-01T09:52:31.784Z,20.00
2019-06-01T09:55:01.008Z,19.00
2019-06-01T09:57:29.989Z,18.50
2019-06-01T09:59:58.804Z,19.00
2019-06-01T10:02:28.024Z,15.30
2019-06-01T10:04:57.401Z,13.50
2019-06-01T10:07:26.176Z,13.90
2019-06-01T10:09:55.081Z,12.00
2019-06-01T10:12:23.964Z,13.10
2019-06-01T10:14:52.897Z,10.50
2019-06-01T10:17:21.805Z,10.20
2019-06-01T10:19:50.717Z,9.40
2019-06-01T10:22:19.674Z,9.80
2019-06-01T10:24:48.724Z,13.20
2019-06-01T10:27:17.634Z,11.90
2019-06-01T10:29:46.695Z,12.20
2019-06-01T10:32:15.719Z,12.40
2019-06-01T10:34:44.636Z,13.30
2019-06-01T10:37:13.672Z,11.60
2019-06-01T10:39:42.677Z,10.40
2019-06-01T10:42:11.597Z,8.80
2019-06-01T10:44:45.425Z,8.40
2019-06-01T10:47:11.112Z,11.20
2019-06-01T10:49:40.143Z,10.00
2019-06-01T10:52:09.390Z,11.30
2019-06-01T10:54:38.383Z,7.90
2019-06-01T10:57:07.379Z,9.50
2019-06-01T10:59:36.456Z,10.80
2019-06-01T11:02:05.510Z,6.60
2019-06-01T11:04:34.857Z,8.30
2019-06-01T11:07:03.852Z,8.40
2019-06-01T11:09:33.032Z,9.50
2019-06-01T11:12:02.686Z,8.20
2019-06-01T11:14:32.884Z,8.00
2019-06-01T11:17:02.061Z,7.80
2019-06-01T11:19:31.009Z,7.50
2019-06-01T11:22:00.348Z,6.50
2019-06-01T11:24:29.345Z,6.80
2019-06-01T11:26:58.796Z,6.30
2019-06-01T11:29:27.768Z,6.00
2019-06-01T11:31:56.852Z,7.40
2019-06-01T11:34:25.637Z,6.90
2019-06-01T11:37:04.867Z,6.80
2019-06-01T11:39:25.249Z,4.30
2019-06-01T11:41:54.134Z,5.50
2019-06-01T11:44:22.986Z,7.00
2019-06-01T11:46:55.067Z,7.40
2019-06-01T11:49:23.989Z,7.70
2019-06-01T11:51:53.048Z,3.10
2019-06-01T11:54:22.204Z,6.70
2019-06-01T11:56:51.152Z,5.90
2019-06-01T11:59:21.288Z,4.70
2019-06-01T12:01:50.691Z,5.90
2019-06-01T12:04:19.600Z,5.90
2019-06-01T12:06:48.528Z,6.20
2019-06-01T12:09:17.359Z,6.10
2019-06-01T12:11:46.512Z,4.20
2019-06-01T12:14:15.853Z,6.80
2019-06-01T12:16:44.934Z,5.30
2019-06-01T12:19:14.745Z,5.00
2019-06-01T12:21:45.114Z,5.80
2019-06-01T12:24:14.403Z,4.50
2019-06-01T12:26:43.591Z,5.00
2019-06-01T12:29:12.473Z,4.60
2019-06-01T12:31:41.708Z,6.40
2019-06-01T12:34:10.959Z,2.50
2019-06-01T12:36:41.030Z,5.10
2019-06-01T12:39:10.613Z,2.90
2019-06-01T12:41:39.847Z,6.20
2019-06-01T12:44:15.667Z,5.30
2019-06-01T12:46:44.996Z,1.90
2019-06-01T12:49:14.030Z,1.00
2019-06-01T12:51:44.472Z,1.00
2019-06-01T12:54:13.572Z,1.00
2019-06-01T12:56:42.878Z,1.00
2019-06-01T12:59:11.996Z,1.00
2019-06-01T13:01:41.107Z,1.00
2019-06-01T13:04:10.019Z,1.00
2019-06-01T13:06:39.026Z,1.00
2019-06-01T13:09:08.688Z,1.00
2019-06-01T13:11:37.730Z,1.00
2019-06-01T13:14:07.022Z,1.00
2019-06-01T13:16:36.040Z,1.00
2019-06-01T13:19:05.008Z,1.00
2019-06-01T13:21:34.028Z,1.00
2019-06-01T13:24:02.968Z,1.00
2019-06-01T13:26:31.998Z,1.00
2019-06-01T13:29:00.861Z,1.00
2019-06-01T13:31:29.864Z,1.00
2019-06-01T13:33:58.820Z,1.00
2019-06-01T13:36:27.808Z,1.00
2019-06-01T13:38:56.696Z,1.00
2019-06-01T13:41:25.758Z,1.00
2019-06-01T13:43:54.673Z,1.00
2019-06-01T13:46:23.603Z,1.00
2019-06-01T13:48:56.068Z,1.00
2019-06-01T13:51:25.207Z,1.00
2019-06-01T13:53:54.667Z,1.00
2019-06-01T13:56:23.596Z,1.00
2019-06-01T13:58:52.572Z,1.00
2019-06-01T14:01:21.751Z,1.00
2019-06-01T14:03:52.291Z,1.00
2019-06-01T14:06:21.680Z,1.00
2019-06-01T14:08:51.114Z,1.00
2019-06-01T14:11:20.916Z,1.00
2019-06-01T14:13:49.961Z,1.00
2019-06-01T14:16:19.136Z,1.00
2019-06-01T14:18:48.001Z,1.00
2019-06-01T14:21:16.772Z,1.00
2019-06-01T14:23:45.894Z,1.00
2019-06-01T14:26:15.054Z,1.00
2019-06-01T14:28:43.960Z,1.00
2019-06-01T14:31:12.942Z,1.00
2019-06-01T14:33:41.746Z,1.00
2019-06-01T14:36:10.628Z,1.00
2019-06-01T14:38:46.946Z,1.00
2019-06-01T14:41:13.376Z,1.00
2019-06-01T14:43:42.376Z,1.00
2019-06-01T14:46:11.393Z,1.00
2019-06-01T14:48:40.401Z,1.00
2019-06-01T14:51:09.388Z,1.00
2019-06-01T14:53:38.374Z,1.00
2019-06-01T14:56:07.373Z,1.00
2019-06-01T14:58:36.592Z,1.00
2019-06-01T15:01:06.180Z,1.00
2019-06-01T15:03:35.768Z,1.00
2019-06-01T15:06:04.808Z,1.00
2019-06-01T15:08:33.641Z,1.00
2019-06-01T15:11:02.635Z,1.00
2019-06-01T15:13:31.714Z,1.00
2019-06-01T15:16:01.922Z,1.00
2019-06-01T15:18:31.266Z,1.00
2019-06-01T15:21:02.169Z,1.00
2019-06-01T15:23:31.428Z,1.00
2019-06-01T15:26:00.228Z,1.00
2019-06-01T15:28:29.214Z,1.00
2019-06-01T15:30:59.263Z,1.00
2019-06-01T15:33:28.169Z,1.00
2019-06-01T15:35:57.751Z,1.00
2019-06-01T15:38:26.613Z,1.00
2019-06-01T15:40:56.122Z,1.00
2019-06-01T15:43:25.334Z,1.00
2019-06-01T15:45:55.373Z,1.00
2019-06-01T15:48:24.716Z,1.00
2019-06-01T15:50:54.130Z,1.00
2019-06-01T15:53:24.212Z,1.00
2019-06-01T15:55:54.276Z,1.00
2019-06-01T15:58:23.315Z,1.00
2019-06-01T16:00:52.688Z,1.00
2019-06-01T16:03:21.944Z,1.00
2019-06-01T16:05:51.030Z,1.00
2019-06-01T16:08:19.920Z,1.00
2019-06-01T16:10:49.226Z,1.00
2019-06-01T16:13:18.176Z,1.00
2019-06-01T16:15:47.297Z,1.00
2019-06-01T16:18:16.209Z,1.00
2019-06-01T16:20:45.389Z,1.00
2019-06-01T16:23:14.648Z,1.00
2019-06-01T16:25:43.518Z,1.00
2019-06-01T16:28:12.525Z,1.00
2019-06-01T16:30:41.435Z,1.00
2019-06-01T16:33:10.565Z,1.00
2019-06-01T16:35:39.840Z,1.00
2019-06-01T16:38:08.836Z,1.00
2019-06-01T16:40:38.139Z,1.00
2019-06-01T16:43:07.028Z,1.00
2019-06-01T16:45:36.017Z,1.00
2019-06-01T16:48:06.400Z,1.00
2019-06-01T16:50:35.718Z,1.00
2019-06-01T16:53:06.279Z,1.00
2019-06-01T16:55:35.291Z,1.00
2019-06-01T16:58:06.315Z,1.00
2019-06-01T17:00:35.265Z,1.00
2019-06-01T17:03:05.111Z,1.00
2019-06-01T17:05:34.176Z,1.00
2019-06-01T17:08:03.170Z,1.00
2019-06-01T17:10:32.156Z,1.00
2019-06-01T17:13:01.613Z,1.00
2019-06-01T17:15:30.867Z,1.40
2019-06-01T17:18:04.437Z,1.00
2019-06-01T17:20:47.860Z,1.00
2019-06-01T17:23:27.483Z,1.00
2019-06-01T17:25:47.821Z,1.00
2019-06-01T17:28:17.114Z,1.00
2019-06-01T17:30:46.269Z,1.00
2019-06-01T17:33:15.225Z,1.00
2019-06-01T17:35:44.184Z,1.00
2019-06-01T17:38:13.199Z,1.00
2019-06-01T17:40:43.299Z,1.00
2019-06-01T17:43:13.143Z,1.00
2019-06-01T17:45:42.622Z,1.00
2019-06-01T17:48:24.785Z,1.00
2019-06-01T17:50:42.300Z,1.00
2019-06-01T17:53:11.444Z,1.00
2019-06-01T17:55:41.096Z,1.00
2019-06-01T17:58:11.774Z,1.00
2019-06-01T18:00:41.509Z,1.30
2019-06-01T18:03:12.062Z,1.20
2019-06-01T18:05:41.319Z,1.00
2019-06-01T18:08:10.684Z,1.00
2019-06-01T18:10:53.320Z,1.00
2019-06-01T18:13:12.922Z,1.00
2019-06-01T18:15:42.246Z,1.00
2019-06-01T18:18:12.651Z,1.20
2019-06-01T18:20:42.613Z,1.30
2019-06-01T18:23:13.214Z,1.70
2019-06-01T18:25:42.521Z,1.80
2019-06-01T18:28:16.123Z,1.80
2019-06-01T18:30:42.503Z,1.90
2019-06-01T18:33:11.464Z,2.20
2019-06-01T18:35:40.442Z,2.70
2019-06-01T18:38:09.796Z,3.70
2019-06-01T18:40:39.194Z,3.80
2019-06-01T18:43:12.141Z,3.80
2019-06-01T18:45:41.361Z,4.20
2019-06-01T18:48:10.678Z,5.40
2019-06-01T18:50:39.784Z,6.10
2019-06-01T18:53:10.089Z,6.30
2019-06-01T18:55:39.384Z,5.60
2019-06-01T18:58:08.628Z,4.70
2019-06-01T19:00:40.018Z,4.80
2019-06-01T19:03:09.002Z,3.60
2019-06-01T19:05:38.341Z,3.60
2019-06-01T19:08:07.377Z,3.50
2019-06-01T19:10:36.617Z,4.00
2019-06-01T19:13:06.002Z,4.40
2019-06-01T19:15:35.249Z,4.80
2019-06-01T19:18:04.198Z,5.20
2019-06-01T19:20:33.494Z,6.00
2019-06-01T19:23:03.788Z,6.30
2019-06-01T19:25:32.808Z,6.60
2019-06-01T19:28:01.742Z,6.60
2019-06-01T19:30:36.416Z,6.80
2019-06-01T19:33:06.771Z,7.00
2019-06-01T19:35:36.860Z,7.50
2019-06-01T19:38:06.986Z,9.30
2019-06-01T19:40:37.890Z,8.10
2019-06-01T19:43:09.423Z,7.70
2019-06-01T19:45:38.823Z,7.50
2019-06-01T19:48:08.425Z,7.40
2019-06-01T19:50:37.556Z,7.70
2019-06-01T19:53:06.548Z,7.80
2019-06-01T19:55:35.825Z,7.90
2019-06-01T19:58:04.952Z,8.70
2019-06-01T20:00:33.924Z,8.70
2019-06-01T20:03:02.937Z,8.90
2019-06-01T20:05:32.062Z,9.30
2019-06-01T20:08:03.781Z,9.30
2019-06-01T20:10:32.635Z,9.50
2019-06-01T20:13:01.468Z,9.50
2019-06-01T20:15:30.481Z,9.70
2019-06-01T20:17:59.289Z,10.20
2019-06-01T20:20:28.261Z,10.50
2019-06-01T20:22:57.176Z,10.60
2019-06-01T20:25:26.732Z,10.90
2019-06-01T20:27:55.693Z,10.90
2019-06-01T20:30:24.604Z,11.10
2019-06-01T20:32:53.765Z,11.10
2019-06-01T20:35:22.657Z,11.70
2019-06-01T20:37:51.597Z,12.20
2019-06-01T20:40:20.736Z,12.60
2019-06-01T20:42:49.960Z,12.90
2019-06-01T20:45:20.717Z,13.10
2019-06-01T20:47:49.984Z,13.50
2019-06-01T20:50:19.045Z,13.20
2019-06-01T20:52:48.266Z,12.50
2019-06-01T20:55:19.160Z,12.00
2019-06-01T20:57:48.638Z,12.20
2019-06-01T21:00:19.759Z,12.60
2019-06-01T21:02:48.669Z,12.60
2019-06-01T21:05:18.340Z,12.60
2019-06-01T21:07:47.269Z,12.30
2019-06-01T21:10:18.138Z,11.80
2019-06-01T21:12:47.292Z,11.50
2019-06-01T21:15:17.348Z,11.60
2019-06-01T21:17:49.858Z,11.50
2019-06-01T21:20:24.974Z,11.60
2019-06-01T21:22:48.305Z,11.90
2019-06-01T21:25:18.679Z,12.20
2019-06-01T21:27:47.965Z,12.60
2019-06-01T21:30:19.879Z,13.00
2019-06-01T21:32:48.925Z,13.00
2019-06-01T21:35:19.214Z,12.90
2019-06-01T21:37:48.696Z,12.80
2019-06-01T21:40:17.644Z,13.00
2019-06-01T21:43:01.023Z,13.00
2019-06-01T21:45:17.578Z,12.80
2019-06-01T21:47:46.633Z,12.60
2019-06-01T21:50:18.047Z,13.00
2019-06-01T21:52:47.733Z,13.70
2019-06-01T21:55:17.729Z,14.10
2019-06-01T21:57:46.948Z,14.30
2019-06-01T22:00:24.656Z,13.80
2019-06-01T22:02:54.141Z,13.50
2019-06-01T22:05:23.635Z,13.50
2019-06-01T22:07:52.837Z,13.80
2019-06-01T22:10:21.837Z,14.30
2019-06-01T22:12:51.289Z,15.90
2019-06-01T22:15:21.336Z,16.10
2019-06-01T22:17:50.533Z,16.40
2019-06-01T22:20:19.950Z,15.40
2019-06-01T22:22:49.151Z,14.70
2019-06-01T22:25:18.461Z,14.50
2019-06-01T22:27:48.640Z,16.20
2019-06-01T22:30:20.318Z,18.00
2019-06-01T22:32:49.372Z,18.40
2019-06-01T22:35:18.750Z,18.90
2019-06-01T22:37:47.744Z,17.50
2019-06-01T22:40:16.842Z,16.80
2019-06-01T22:42:45.745Z,17.40
2019-06-01T22:45:14.908Z,17.20
2019-06-01T22:47:44.060Z,17.40
2019-06-01T22:50:13.088Z,17.90
2019-06-01T22:52:41.978Z,19.20
2019-06-01T22:55:11.048Z,18.70
2019-06-01T22:57:43.177Z,18.10
2019-06-01T23:00:10.616Z,18.70
2019-06-01T23:02:39.541Z,17.10
2019-06-01T23:05:09.289Z,17.10
2019-06-01T23:07:38.177Z,18.70
2019-06-01T23:10:07.665Z,19.20
2019-06-01T23:12:36.572Z,20.50
2019-06-01T23:15:06.776Z,19.90
2019-06-01T23:17:35.757Z,20.20
2019-06-01T23:20:05.392Z,21.00
2019-06-01T23:22:34.320Z,22.30
2019-06-01T23:25:03.265Z,22.60
2019-06-01T23:27:32.623Z,23.10
2019-06-01T23:30:01.670Z,23.60
2019-06-01T23:32:30.784Z,24.10
2019-06-01T23:34:59.847Z,23.70
2019-06-01T23:37:28.878Z,23.50
2019-06-01T23:39:57.652Z,23.60
2019-06-01T23:42:26.811Z,24.60
2019-06-01T23:44:55.783Z,25.00
2019-06-01T23:47:25.732Z,25.20
2019-06-01T23:49:54.911Z,26.10
2019-06-01T23:52:23.860Z,26.30
2019-06-01T23:54:52.792Z,23.20
2019-06-01T23:57:21.629Z,23.50
2019-06-01T23:59:50.580Z,23.00
